sensor_id;sensor_type;location;lat;lon;timestamp;P1;durP1;ratioP1;P2;durP2;ratioP2
20144;SDS011;10233;50.814;6.590;2023-06-22T00:00:30;5.50;;;2.80;;
20144;SDS011;10233;50.814;6.590;2023-06-22T00:01:30;4.03;;;3.30;;
20144;SDS011;10233;50.814;6.590;2023-06-22T00:02:31;5.55;;;2.80;;
20144;SDS011;10233;50.814;6.590;2023-06-22T00:03:31;4.23;;;2.77;;
20144;SDS011;10233;50.814;6.590;2023-06-22T00:04:32;4.23;;;2.77;;
20144;SDS011;10233;50.814;6.590;2023-06-22T00:05:32;5.05;;;2.67;;
20144;SDS011;10233;50.814;6.590;2023-06-22T00:06:33;4.07;;;2.58;;
20144;SDS011;10233;50.814;6.590;2023-06-22T00:07:33;3.93;;;2.63;;
20144;SDS011;10233;50.814;6.590;2023-06-22T00:08:33;5.17;;;2.83;;
20144;SDS011;10233;50.814;6.590;2023-06-22T00:09:34;5.07;;;3.05;;
20144;SDS011;10233;50.814;6.590;2023-06-22T00:10:34;3.10;;;2.40;;
20144;SDS011;10233;50.814;6.590;2023-06-22T00:11:35;4.70;;;2.87;;
20144;SDS011;10233;50.814;6.590;2023-06-22T00:12:36;4.15;;;2.88;;
20144;SDS011;10233;50.814;6.590;2023-06-22T00:13:37;3.80;;;2.50;;
20144;SDS011;10233;50.814;6.590;2023-06-22T00:14:38;3.93;;;2.70;;
20144;SDS011;10233;50.814;6.590;2023-06-22T00:15:39;3.80;;;2.90;;
20144;SDS011;10233;50.814;6.590;2023-06-22T00:16:41;3.83;;;2.55;;
20144;SDS011;10233;50.814;6.590;2023-06-22T00:17:42;4.25;;;2.85;;
20144;SDS011;10233;50.814;6.590;2023-06-22T00:18:43;3.45;;;2.35;;
20144;SDS011;10233;50.814;6.590;2023-06-22T00:19:47;4.20;;;2.45;;
20144;SDS011;10233;50.814;6.590;2023-06-22T00:20:47;3.47;;;2.33;;
20144;SDS011;10233;50.814;6.590;2023-06-22T00:21:48;3.47;;;2.43;;
20144;SDS011;10233;50.814;6.590;2023-06-22T00:22:53;3.50;;;2.33;;
20144;SDS011;10233;50.814;6.590;2023-06-22T00:23:54;4.15;;;2.72;;
20144;SDS011;10233;50.814;6.590;2023-06-22T00:24:55;4.15;;;2.42;;
20144;SDS011;10233;50.814;6.590;2023-06-22T00:25:56;3.38;;;2.45;;
20144;SDS011;10233;50.814;6.590;2023-06-22T00:26:57;3.00;;;2.10;;
20144;SDS011;10233;50.814;6.590;2023-06-22T00:27:57;3.97;;;2.60;;
20144;SDS011;10233;50.814;6.590;2023-06-22T00:28:57;3.63;;;2.40;;
20144;SDS011;10233;50.814;6.590;2023-06-22T00:29:58;3.63;;;2.55;;
20144;SDS011;10233;50.814;6.590;2023-06-22T00:30:58;4.37;;;2.60;;
20144;SDS011;10233;50.814;6.590;2023-06-22T00:32:00;4.40;;;2.58;;
20144;SDS011;10233;50.814;6.590;2023-06-22T00:33:01;4.05;;;3.00;;
20144;SDS011;10233;50.814;6.590;2023-06-22T00:34:01;4.55;;;2.75;;
20144;SDS011;10233;50.814;6.590;2023-06-22T00:35:02;4.75;;;2.90;;
20144;SDS011;10233;50.814;6.590;2023-06-22T00:36:04;3.70;;;2.42;;
20144;SDS011;10233;50.814;6.590;2023-06-22T00:37:05;5.03;;;2.70;;
20144;SDS011;10233;50.814;6.590;2023-06-22T00:38:08;7.35;;;3.08;;
20144;SDS011;10233;50.814;6.590;2023-06-22T00:39:09;4.05;;;2.40;;
20144;SDS011;10233;50.814;6.590;2023-06-22T00:40:10;3.55;;;2.30;;
20144;SDS011;10233;50.814;6.590;2023-06-22T00:41:12;5.00;;;2.50;;
20144;SDS011;10233;50.814;6.590;2023-06-22T00:42:12;3.78;;;2.60;;
20144;SDS011;10233;50.814;6.590;2023-06-22T00:43:12;3.97;;;2.60;;
20144;SDS011;10233;50.814;6.590;2023-06-22T00:44:13;5.63;;;2.80;;
20144;SDS011;10233;50.814;6.590;2023-06-22T00:45:13;4.13;;;2.63;;
20144;SDS011;10233;50.814;6.590;2023-06-22T00:46:15;5.23;;;2.87;;
20144;SDS011;10233;50.814;6.590;2023-06-22T00:47:17;3.63;;;2.60;;
20144;SDS011;10233;50.814;6.590;2023-06-22T00:48:18;5.82;;;2.60;;
20144;SDS011;10233;50.814;6.590;2023-06-22T00:49:21;3.53;;;2.50;;
20144;SDS011;10233;50.814;6.590;2023-06-22T00:50:24;4.72;;;2.60;;
20144;SDS011;10233;50.814;6.590;2023-06-22T00:51:26;4.15;;;2.72;;
20144;SDS011;10233;50.814;6.590;2023-06-22T00:52:27;3.80;;;2.50;;
20144;SDS011;10233;50.814;6.590;2023-06-22T00:53:29;4.25;;;2.83;;
20144;SDS011;10233;50.814;6.590;2023-06-22T00:54:35;4.60;;;2.67;;
20144;SDS011;10233;50.814;6.590;2023-06-22T00:55:45;4.45;;;2.40;;
20144;SDS011;10233;50.814;6.590;2023-06-22T00:56:52;4.88;;;2.40;;
20144;SDS011;10233;50.814;6.590;2023-06-22T00:57:55;6.22;;;2.72;;
20144;SDS011;10233;50.814;6.590;2023-06-22T00:58:57;4.88;;;2.90;;
20144;SDS011;10233;50.814;6.590;2023-06-22T00:59:59;6.18;;;2.65;;
20144;SDS011;10233;50.814;6.590;2023-06-22T01:01:01;4.05;;;2.72;;
20144;SDS011;10233;50.814;6.590;2023-06-22T01:02:02;4.97;;;2.80;;
20144;SDS011;10233;50.814;6.590;2023-06-22T01:03:03;5.70;;;2.65;;
20144;SDS011;10233;50.814;6.590;2023-06-22T01:04:04;4.38;;;2.75;;
20144;SDS011;10233;50.814;6.590;2023-06-22T01:05:05;3.20;;;2.55;;
20144;SDS011;10233;50.814;6.590;2023-06-22T01:06:10;3.30;;;2.30;;
20144;SDS011;10233;50.814;6.590;2023-06-22T01:07:31;5.30;;;2.43;;
20144;SDS011;10233;50.814;6.590;2023-06-22T01:08:42;4.30;;;2.50;;
20144;SDS011;10233;50.814;6.590;2023-06-22T01:09:55;4.00;;;2.58;;
20144;SDS011;10233;50.814;6.590;2023-06-22T01:12:12;3.28;;;2.50;;
20144;SDS011;10233;50.814;6.590;2023-06-22T01:14:36;3.85;;;2.40;;
20144;SDS011;10233;50.814;6.590;2023-06-22T01:15:44;3.03;;;2.47;;
20144;SDS011;10233;50.814;6.590;2023-06-22T01:16:49;3.17;;;2.28;;
20144;SDS011;10233;50.814;6.590;2023-06-22T01:17:54;4.15;;;2.70;;
20144;SDS011;10233;50.814;6.590;2023-06-22T01:18:57;3.90;;;2.28;;
20144;SDS011;10233;50.814;6.590;2023-06-22T01:20:14;3.78;;;2.17;;
20144;SDS011;10233;50.814;6.590;2023-06-22T01:21:17;5.65;;;2.67;;
20144;SDS011;10233;50.814;6.590;2023-06-22T01:22:20;2.97;;;2.38;;
20144;SDS011;10233;50.814;6.590;2023-06-22T01:24:41;4.28;;;2.55;;
20144;SDS011;10233;50.814;6.590;2023-06-22T01:29:44;4.13;;;2.70;;
20144;SDS011;10233;50.814;6.590;2023-06-22T01:30:45;3.70;;;2.50;;
20144;SDS011;10233;50.814;6.590;2023-06-22T01:31:48;5.22;;;2.42;;
20144;SDS011;10233;50.814;6.590;2023-06-22T01:32:51;4.50;;;2.78;;
20144;SDS011;10233;50.814;6.590;2023-06-22T01:33:53;4.15;;;2.42;;
20144;SDS011;10233;50.814;6.590;2023-06-22T01:34:57;3.83;;;2.72;;
20144;SDS011;10233;50.814;6.590;2023-06-22T01:36:00;3.60;;;2.60;;
20144;SDS011;10233;50.814;6.590;2023-06-22T01:37:02;4.68;;;2.40;;
20144;SDS011;10233;50.814;6.590;2023-06-22T01:38:03;3.17;;;2.33;;
20144;SDS011;10233;50.814;6.590;2023-06-22T01:39:05;4.38;;;2.45;;
20144;SDS011;10233;50.814;6.590;2023-06-22T01:40:07;4.90;;;2.90;;
20144;SDS011;10233;50.814;6.590;2023-06-22T01:41:09;4.05;;;2.80;;
20144;SDS011;10233;50.814;6.590;2023-06-22T01:42:10;3.88;;;2.90;;
20144;SDS011;10233;50.814;6.590;2023-06-22T01:43:14;4.70;;;2.78;;
20144;SDS011;10233;50.814;6.590;2023-06-22T01:44:15;3.28;;;2.40;;
20144;SDS011;10233;50.814;6.590;2023-06-22T01:45:16;5.18;;;2.70;;
20144;SDS011;10233;50.814;6.590;2023-06-22T01:46:18;5.60;;;2.63;;
20144;SDS011;10233;50.814;6.590;2023-06-22T01:47:20;4.95;;;2.65;;
20144;SDS011;10233;50.814;6.590;2023-06-22T01:48:22;5.38;;;2.67;;
20144;SDS011;10233;50.814;6.590;2023-06-22T01:49:23;3.85;;;2.50;;
20144;SDS011;10233;50.814;6.590;2023-06-22T01:50:24;4.93;;;2.67;;
20144;SDS011;10233;50.814;6.590;2023-06-22T01:51:24;4.82;;;2.80;;
20144;SDS011;10233;50.814;6.590;2023-06-22T01:52:25;4.70;;;2.60;;
20144;SDS011;10233;50.814;6.590;2023-06-22T01:53:25;5.70;;;2.67;;
20144;SDS011;10233;50.814;6.590;2023-06-22T01:54:26;5.90;;;2.70;;
20144;SDS011;10233;50.814;6.590;2023-06-22T01:55:26;4.80;;;2.60;;
20144;SDS011;10233;50.814;6.590;2023-06-22T01:56:27;5.00;;;3.30;;
20144;SDS011;10233;50.814;6.590;2023-06-22T01:57:27;6.90;;;2.70;;
20144;SDS011;10233;50.814;6.590;2023-06-22T01:58:29;3.83;;;2.60;;
20144;SDS011;10233;50.814;6.590;2023-06-22T02:00:55;5.32;;;2.78;;
20144;SDS011;10233;50.814;6.590;2023-06-22T02:02:03;5.82;;;3.22;;
20144;SDS011;10233;50.814;6.590;2023-06-22T02:04:16;4.13;;;2.60;;
20144;SDS011;10233;50.814;6.590;2023-06-22T02:05:22;4.43;;;2.30;;
20144;SDS011;10233;50.814;6.590;2023-06-22T02:06:26;4.20;;;2.63;;
20144;SDS011;10233;50.814;6.590;2023-06-22T02:07:31;4.20;;;2.50;;
20144;SDS011;10233;50.814;6.590;2023-06-22T02:08:41;5.28;;;2.83;;
20144;SDS011;10233;50.814;6.590;2023-06-22T02:09:47;4.28;;;2.78;;
20144;SDS011;10233;50.814;6.590;2023-06-22T02:10:51;3.92;;;2.70;;
20144;SDS011;10233;50.814;6.590;2023-06-22T02:11:54;4.30;;;3.20;;
20144;SDS011;10233;50.814;6.590;2023-06-22T02:12:57;5.88;;;3.20;;
20144;SDS011;10233;50.814;6.590;2023-06-22T02:13:59;4.78;;;3.05;;
20144;SDS011;10233;50.814;6.590;2023-06-22T02:15:00;5.43;;;3.22;;
20144;SDS011;10233;50.814;6.590;2023-06-22T02:16:01;5.63;;;3.30;;
20144;SDS011;10233;50.814;6.590;2023-06-22T02:17:02;6.78;;;3.53;;
20144;SDS011;10233;50.814;6.590;2023-06-22T02:18:04;5.28;;;2.83;;
20144;SDS011;10233;50.814;6.590;2023-06-22T02:19:05;5.72;;;3.17;;
20144;SDS011;10233;50.814;6.590;2023-06-22T02:20:11;5.38;;;3.65;;
20144;SDS011;10233;50.814;6.590;2023-06-22T02:21:13;8.32;;;4.03;;
20144;SDS011;10233;50.814;6.590;2023-06-22T02:22:14;4.95;;;3.38;;
20144;SDS011;10233;50.814;6.590;2023-06-22T02:23:14;4.47;;;3.17;;
20144;SDS011;10233;50.814;6.590;2023-06-22T02:24:15;5.13;;;3.17;;
20144;SDS011;10233;50.814;6.590;2023-06-22T02:25:15;4.25;;;3.05;;
20144;SDS011;10233;50.814;6.590;2023-06-22T02:26:16;5.23;;;2.97;;
20144;SDS011;10233;50.814;6.590;2023-06-22T02:27:18;4.55;;;3.30;;
20144;SDS011;10233;50.814;6.590;2023-06-22T02:28:18;6.13;;;3.13;;
20144;SDS011;10233;50.814;6.590;2023-06-22T02:29:19;3.65;;;2.63;;
20144;SDS011;10233;50.814;6.590;2023-06-22T02:30:19;4.23;;;2.90;;
20144;SDS011;10233;50.814;6.590;2023-06-22T02:31:20;5.83;;;3.13;;
20144;SDS011;10233;50.814;6.590;2023-06-22T02:32:20;4.88;;;2.90;;
20144;SDS011;10233;50.814;6.590;2023-06-22T02:33:21;5.03;;;3.00;;
20144;SDS011;10233;50.814;6.590;2023-06-22T02:34:21;5.00;;;3.17;;
20144;SDS011;10233;50.814;6.590;2023-06-22T02:35:22;5.18;;;3.38;;
20144;SDS011;10233;50.814;6.590;2023-06-22T02:36:23;5.13;;;3.67;;
20144;SDS011;10233;50.814;6.590;2023-06-22T02:37:23;5.22;;;3.83;;
20144;SDS011;10233;50.814;6.590;2023-06-22T02:38:25;6.63;;;4.18;;
20144;SDS011;10233;50.814;6.590;2023-06-22T02:39:26;7.75;;;5.22;;
20144;SDS011;10233;50.814;6.590;2023-06-22T02:40:27;7.53;;;4.83;;
20144;SDS011;10233;50.814;6.590;2023-06-22T02:41:28;7.45;;;4.88;;
20144;SDS011;10233;50.814;6.590;2023-06-22T02:42:30;9.20;;;5.15;;
20144;SDS011;10233;50.814;6.590;2023-06-22T02:43:30;7.32;;;4.40;;
20144;SDS011;10233;50.814;6.590;2023-06-22T02:44:31;6.63;;;4.60;;
20144;SDS011;10233;50.814;6.590;2023-06-22T02:45:31;4.50;;;3.70;;
20144;SDS011;10233;50.814;6.590;2023-06-22T02:46:32;6.55;;;4.00;;
20144;SDS011;10233;50.814;6.590;2023-06-22T02:47:33;7.63;;;4.03;;
20144;SDS011;10233;50.814;6.590;2023-06-22T02:48:34;4.85;;;3.45;;
20144;SDS011;10233;50.814;6.590;2023-06-22T02:49:35;6.72;;;3.63;;
20144;SDS011;10233;50.814;6.590;2023-06-22T02:50:36;6.20;;;3.63;;
20144;SDS011;10233;50.814;6.590;2023-06-22T02:51:38;6.97;;;3.95;;
20144;SDS011;10233;50.814;6.590;2023-06-22T02:52:47;4.40;;;3.30;;
20144;SDS011;10233;50.814;6.590;2023-06-22T02:53:48;5.88;;;3.50;;
20144;SDS011;10233;50.814;6.590;2023-06-22T02:54:52;5.70;;;3.55;;
20144;SDS011;10233;50.814;6.590;2023-06-22T02:55:53;5.57;;;3.40;;
20144;SDS011;10233;50.814;6.590;2023-06-22T02:56:53;5.13;;;3.30;;
20144;SDS011;10233;50.814;6.590;2023-06-22T02:57:55;4.60;;;2.95;;
20144;SDS011;10233;50.814;6.590;2023-06-22T02:58:59;4.18;;;3.05;;
20144;SDS011;10233;50.814;6.590;2023-06-22T03:00:08;4.47;;;3.20;;
20144;SDS011;10233;50.814;6.590;2023-06-22T03:01:19;5.85;;;3.33;;
20144;SDS011;10233;50.814;6.590;2023-06-22T03:02:24;4.88;;;3.17;;
20144;SDS011;10233;50.814;6.590;2023-06-22T03:03:26;4.95;;;3.20;;
20144;SDS011;10233;50.814;6.590;2023-06-22T03:04:27;5.10;;;3.43;;
20144;SDS011;10233;50.814;6.590;2023-06-22T03:05:27;5.63;;;3.47;;
20144;SDS011;10233;50.814;6.590;2023-06-22T03:06:29;7.05;;;3.03;;
20144;SDS011;10233;50.814;6.590;2023-06-22T03:07:29;6.33;;;3.13;;
20144;SDS011;10233;50.814;6.590;2023-06-22T03:08:31;4.05;;;3.00;;
20144;SDS011;10233;50.814;6.590;2023-06-22T03:09:32;6.57;;;3.50;;
20144;SDS011;10233;50.814;6.590;2023-06-22T03:10:32;6.28;;;3.75;;
20144;SDS011;10233;50.814;6.590;2023-06-22T03:11:33;5.17;;;3.40;;
20144;SDS011;10233;50.814;6.590;2023-06-22T03:12:34;7.15;;;3.80;;
20144;SDS011;10233;50.814;6.590;2023-06-22T03:13:35;5.03;;;3.22;;
20144;SDS011;10233;50.814;6.590;2023-06-22T03:14:35;7.25;;;3.38;;
20144;SDS011;10233;50.814;6.590;2023-06-22T03:15:38;6.85;;;3.40;;
20144;SDS011;10233;50.814;6.590;2023-06-22T03:16:38;6.23;;;3.70;;
20144;SDS011;10233;50.814;6.590;2023-06-22T03:17:41;5.50;;;3.50;;
20144;SDS011;10233;50.814;6.590;2023-06-22T03:18:42;6.75;;;3.60;;
20144;SDS011;10233;50.814;6.590;2023-06-22T03:19:42;8.77;;;3.90;;
20144;SDS011;10233;50.814;6.590;2023-06-22T03:20:43;24.03;;;7.60;;
20144;SDS011;10233;50.814;6.590;2023-06-22T03:21:43;81.00;;;18.35;;
20144;SDS011;10233;50.814;6.590;2023-06-22T03:22:44;28.63;;;7.33;;
20144;SDS011;10233;50.814;6.590;2023-06-22T03:23:45;71.93;;;16.58;;
20144;SDS011;10233;50.814;6.590;2023-06-22T03:24:46;50.57;;;12.27;;
20144;SDS011;10233;50.814;6.590;2023-06-22T03:25:47;32.70;;;9.50;;
20144;SDS011;10233;50.814;6.590;2023-06-22T03:26:47;30.98;;;9.18;;
20144;SDS011;10233;50.814;6.590;2023-06-22T03:27:48;35.47;;;9.30;;
20144;SDS011;10233;50.814;6.590;2023-06-22T03:28:49;29.58;;;7.90;;
20144;SDS011;10233;50.814;6.590;2023-06-22T03:29:49;21.43;;;7.50;;
20144;SDS011;10233;50.814;6.590;2023-06-22T03:30:50;15.68;;;5.25;;
20144;SDS011;10233;50.814;6.590;2023-06-22T03:31:51;10.87;;;4.53;;
20144;SDS011;10233;50.814;6.590;2023-06-22T03:32:51;8.10;;;4.05;;
20144;SDS011;10233;50.814;6.590;2023-06-22T03:33:52;11.68;;;4.20;;
20144;SDS011;10233;50.814;6.590;2023-06-22T03:34:52;7.53;;;4.17;;
20144;SDS011;10233;50.814;6.590;2023-06-22T03:35:53;9.77;;;3.55;;
20144;SDS011;10233;50.814;6.590;2023-06-22T03:36:55;6.13;;;3.40;;
20144;SDS011;10233;50.814;6.590;2023-06-22T03:37:56;9.43;;;3.50;;
20144;SDS011;10233;50.814;6.590;2023-06-22T03:38:56;5.73;;;3.20;;
20144;SDS011;10233;50.814;6.590;2023-06-22T03:39:57;4.80;;;2.83;;
20144;SDS011;10233;50.814;6.590;2023-06-22T03:40:57;5.27;;;3.10;;
20144;SDS011;10233;50.814;6.590;2023-06-22T03:41:59;4.93;;;3.17;;
20144;SDS011;10233;50.814;6.590;2023-06-22T03:43:00;5.57;;;3.13;;
20144;SDS011;10233;50.814;6.590;2023-06-22T03:44:00;8.23;;;3.25;;
20144;SDS011;10233;50.814;6.590;2023-06-22T03:45:01;5.63;;;3.27;;
20144;SDS011;10233;50.814;6.590;2023-06-22T03:46:03;3.88;;;2.78;;
20144;SDS011;10233;50.814;6.590;2023-06-22T03:47:04;4.43;;;3.13;;
20144;SDS011;10233;50.814;6.590;2023-06-22T03:48:04;7.10;;;2.80;;
20144;SDS011;10233;50.814;6.590;2023-06-22T03:49:05;6.22;;;2.88;;
20144;SDS011;10233;50.814;6.590;2023-06-22T03:50:06;5.17;;;2.60;;
20144;SDS011;10233;50.814;6.590;2023-06-22T03:51:07;4.25;;;2.78;;
20144;SDS011;10233;50.814;6.590;2023-06-22T03:52:07;4.03;;;2.83;;
20144;SDS011;10233;50.814;6.590;2023-06-22T03:53:08;4.67;;;2.90;;
20144;SDS011;10233;50.814;6.590;2023-06-22T03:54:08;5.57;;;2.90;;
20144;SDS011;10233;50.814;6.590;2023-06-22T03:55:09;5.78;;;3.10;;
20144;SDS011;10233;50.814;6.590;2023-06-22T03:56:10;4.18;;;2.80;;
20144;SDS011;10233;50.814;6.590;2023-06-22T03:57:10;4.60;;;2.90;;
20144;SDS011;10233;50.814;6.590;2023-06-22T03:58:11;3.53;;;2.47;;
20144;SDS011;10233;50.814;6.590;2023-06-22T03:59:12;4.35;;;2.90;;
20144;SDS011;10233;50.814;6.590;2023-06-22T04:00:12;5.50;;;3.30;;
20144;SDS011;10233;50.814;6.590;2023-06-22T04:01:15;5.80;;;3.22;;
20144;SDS011;10233;50.814;6.590;2023-06-22T04:02:17;5.43;;;2.95;;
20144;SDS011;10233;50.814;6.590;2023-06-22T04:03:17;5.07;;;3.23;;
20144;SDS011;10233;50.814;6.590;2023-06-22T04:04:21;4.95;;;3.10;;
20144;SDS011;10233;50.814;6.590;2023-06-22T04:05:22;6.20;;;3.40;;
20144;SDS011;10233;50.814;6.590;2023-06-22T04:06:23;5.60;;;3.33;;
20144;SDS011;10233;50.814;6.590;2023-06-22T04:07:23;4.27;;;2.97;;
20144;SDS011;10233;50.814;6.590;2023-06-22T04:08:24;5.07;;;3.10;;
20144;SDS011;10233;50.814;6.590;2023-06-22T04:09:24;5.35;;;2.92;;
20144;SDS011;10233;50.814;6.590;2023-06-22T04:10:25;6.70;;;3.20;;
20144;SDS011;10233;50.814;6.590;2023-06-22T04:11:25;5.03;;;2.70;;
20144;SDS011;10233;50.814;6.590;2023-06-22T04:12:25;4.20;;;2.67;;
20144;SDS011;10233;50.814;6.590;2023-06-22T04:13:26;3.85;;;2.60;;
20144;SDS011;10233;50.814;6.590;2023-06-22T04:14:26;5.57;;;2.63;;
20144;SDS011;10233;50.814;6.590;2023-06-22T04:15:27;4.63;;;2.73;;
20144;SDS011;10233;50.814;6.590;2023-06-22T04:16:27;5.43;;;3.27;;
20144;SDS011;10233;50.814;6.590;2023-06-22T04:17:28;5.07;;;3.30;;
20144;SDS011;10233;50.814;6.590;2023-06-22T04:18:28;5.40;;;3.17;;
20144;SDS011;10233;50.814;6.590;2023-06-22T04:19:28;5.77;;;3.57;;
20144;SDS011;10233;50.814;6.590;2023-06-22T04:20:29;5.63;;;3.30;;
20144;SDS011;10233;50.814;6.590;2023-06-22T04:21:31;6.40;;;3.83;;
20144;SDS011;10233;50.814;6.590;2023-06-22T04:22:31;6.13;;;3.97;;
20144;SDS011;10233;50.814;6.590;2023-06-22T04:23:32;6.33;;;3.70;;
20144;SDS011;10233;50.814;6.590;2023-06-22T04:24:33;7.47;;;4.10;;
20144;SDS011;10233;50.814;6.590;2023-06-22T04:25:34;7.18;;;3.97;;
20144;SDS011;10233;50.814;6.590;2023-06-22T04:26:34;6.00;;;3.87;;
20144;SDS011;10233;50.814;6.590;2023-06-22T04:27:37;7.32;;;4.07;;
20144;SDS011;10233;50.814;6.590;2023-06-22T04:28:40;7.10;;;4.22;;
20144;SDS011;10233;50.814;6.590;2023-06-22T04:29:41;9.02;;;3.92;;
20144;SDS011;10233;50.814;6.590;2023-06-22T04:30:48;6.82;;;3.92;;
20144;SDS011;10233;50.814;6.590;2023-06-22T04:31:50;7.18;;;4.13;;
20144;SDS011;10233;50.814;6.590;2023-06-22T04:32:51;5.93;;;4.17;;
20144;SDS011;10233;50.814;6.590;2023-06-22T04:33:57;11.43;;;4.27;;
20144;SDS011;10233;50.814;6.590;2023-06-22T04:35:06;4.43;;;3.10;;
20144;SDS011;10233;50.814;6.590;2023-06-22T04:36:07;5.83;;;3.33;;
20144;SDS011;10233;50.814;6.590;2023-06-22T04:37:07;7.28;;;3.40;;
20144;SDS011;10233;50.814;6.590;2023-06-22T04:38:07;6.03;;;3.47;;
20144;SDS011;10233;50.814;6.590;2023-06-22T04:39:09;4.83;;;3.30;;
20144;SDS011;10233;50.814;6.590;2023-06-22T04:40:10;4.93;;;3.40;;
20144;SDS011;10233;50.814;6.590;2023-06-22T04:41:14;4.32;;;2.90;;
20144;SDS011;10233;50.814;6.590;2023-06-22T04:42:25;5.07;;;3.10;;
20144;SDS011;10233;50.814;6.590;2023-06-22T04:43:26;8.23;;;3.67;;
20144;SDS011;10233;50.814;6.590;2023-06-22T04:44:30;4.25;;;3.20;;
20144;SDS011;10233;50.814;6.590;2023-06-22T04:45:30;5.18;;;3.10;;
20144;SDS011;10233;50.814;6.590;2023-06-22T04:46:31;5.90;;;3.57;;
20144;SDS011;10233;50.814;6.590;2023-06-22T04:47:31;5.10;;;3.30;;
20144;SDS011;10233;50.814;6.590;2023-06-22T04:48:32;7.37;;;3.70;;
20144;SDS011;10233;50.814;6.590;2023-06-22T04:49:33;4.75;;;3.10;;
20144;SDS011;10233;50.814;6.590;2023-06-22T04:50:36;7.78;;;4.07;;
20144;SDS011;10233;50.814;6.590;2023-06-22T04:51:39;5.53;;;3.50;;
20144;SDS011;10233;50.814;6.590;2023-06-22T04:52:41;6.13;;;3.30;;
20144;SDS011;10233;50.814;6.590;2023-06-22T04:53:41;4.30;;;3.30;;
20144;SDS011;10233;50.814;6.590;2023-06-22T04:54:42;4.38;;;3.35;;
20144;SDS011;10233;50.814;6.590;2023-06-22T04:55:47;5.93;;;3.38;;
20144;SDS011;10233;50.814;6.590;2023-06-22T04:56:49;5.00;;;3.22;;
20144;SDS011;10233;50.814;6.590;2023-06-22T04:57:56;8.80;;;3.70;;
20144;SDS011;10233;50.814;6.590;2023-06-22T04:58:56;7.87;;;3.50;;
20144;SDS011;10233;50.814;6.590;2023-06-22T04:59:57;6.60;;;3.53;;
20144;SDS011;10233;50.814;6.590;2023-06-22T05:01:12;13.23;;;4.25;;
20144;SDS011;10233;50.814;6.590;2023-06-22T05:02:12;10.47;;;4.10;;
20144;SDS011;10233;50.814;6.590;2023-06-22T05:03:13;18.42;;;5.53;;
20144;SDS011;10233;50.814;6.590;2023-06-22T05:04:13;18.70;;;5.03;;
20144;SDS011;10233;50.814;6.590;2023-06-22T05:05:14;17.33;;;5.50;;
20144;SDS011;10233;50.814;6.590;2023-06-22T05:06:15;13.55;;;4.97;;
20144;SDS011;10233;50.814;6.590;2023-06-22T05:07:16;17.08;;;4.97;;
20144;SDS011;10233;50.814;6.590;2023-06-22T05:08:16;15.70;;;4.80;;
20144;SDS011;10233;50.814;6.590;2023-06-22T05:09:18;11.00;;;4.05;;
20144;SDS011;10233;50.814;6.590;2023-06-22T05:10:18;16.73;;;3.97;;
20144;SDS011;10233;50.814;6.590;2023-06-22T05:11:19;13.85;;;3.72;;
20144;SDS011;10233;50.814;6.590;2023-06-22T05:12:20;11.97;;;4.03;;
20144;SDS011;10233;50.814;6.590;2023-06-22T05:13:20;10.27;;;3.90;;
20144;SDS011;10233;50.814;6.590;2023-06-22T05:14:21;9.98;;;4.30;;
20144;SDS011;10233;50.814;6.590;2023-06-22T05:15:22;10.57;;;3.50;;
20144;SDS011;10233;50.814;6.590;2023-06-22T05:16:26;8.93;;;4.20;;
20144;SDS011;10233;50.814;6.590;2023-06-22T05:17:27;12.50;;;4.20;;
20144;SDS011;10233;50.814;6.590;2023-06-22T05:18:28;11.50;;;4.00;;
20144;SDS011;10233;50.814;6.590;2023-06-22T05:19:29;9.82;;;4.03;;
20144;SDS011;10233;50.814;6.590;2023-06-22T05:20:33;9.10;;;4.38;;
20144;SDS011;10233;50.814;6.590;2023-06-22T05:21:36;8.00;;;4.50;;
20144;SDS011;10233;50.814;6.590;2023-06-22T05:22:37;7.93;;;3.60;;
20144;SDS011;10233;50.814;6.590;2023-06-22T05:23:38;9.07;;;3.38;;
20144;SDS011;10233;50.814;6.590;2023-06-22T05:24:39;6.70;;;3.63;;
20144;SDS011;10233;50.814;6.590;2023-06-22T05:25:39;7.53;;;3.87;;
20144;SDS011;10233;50.814;6.590;2023-06-22T05:26:42;9.98;;;4.03;;
20144;SDS011;10233;50.814;6.590;2023-06-22T05:27:42;9.82;;;3.83;;
20144;SDS011;10233;50.814;6.590;2023-06-22T05:28:44;8.52;;;3.40;;
20144;SDS011;10233;50.814;6.590;2023-06-22T05:29:46;12.70;;;3.92;;
20144;SDS011;10233;50.814;6.590;2023-06-22T05:30:46;10.10;;;3.80;;
20144;SDS011;10233;50.814;6.590;2023-06-22T05:31:46;10.53;;;4.30;;
20144;SDS011;10233;50.814;6.590;2023-06-22T05:32:47;9.18;;;4.15;;
20144;SDS011;10233;50.814;6.590;2023-06-22T05:33:48;8.48;;;4.05;;
20144;SDS011;10233;50.814;6.590;2023-06-22T05:34:49;12.30;;;3.78;;
20144;SDS011;10233;50.814;6.590;2023-06-22T05:35:50;8.05;;;3.15;;
20144;SDS011;10233;50.814;6.590;2023-06-22T05:36:50;6.50;;;3.10;;
20144;SDS011;10233;50.814;6.590;2023-06-22T05:37:50;10.13;;;3.53;;
20144;SDS011;10233;50.814;6.590;2023-06-22T05:38:52;6.53;;;3.28;;
20144;SDS011;10233;50.814;6.590;2023-06-22T05:39:53;9.27;;;3.75;;
20144;SDS011;10233;50.814;6.590;2023-06-22T05:40:54;8.52;;;3.60;;
20144;SDS011;10233;50.814;6.590;2023-06-22T05:41:54;6.07;;;3.57;;
20144;SDS011;10233;50.814;6.590;2023-06-22T05:42:55;7.18;;;3.55;;
20144;SDS011;10233;50.814;6.590;2023-06-22T05:43:55;7.10;;;4.20;;
20144;SDS011;10233;50.814;6.590;2023-06-22T05:44:56;6.70;;;3.50;;
20144;SDS011;10233;50.814;6.590;2023-06-22T05:45:59;9.20;;;3.80;;
20144;SDS011;10233;50.814;6.590;2023-06-22T05:47:01;8.50;;;3.65;;
20144;SDS011;10233;50.814;6.590;2023-06-22T05:48:02;14.75;;;4.32;;
20144;SDS011;10233;50.814;6.590;2023-06-22T05:49:03;10.52;;;3.63;;
20144;SDS011;10233;50.814;6.590;2023-06-22T05:50:04;5.30;;;3.27;;
20144;SDS011;10233;50.814;6.590;2023-06-22T05:51:08;10.63;;;3.47;;
20144;SDS011;10233;50.814;6.590;2023-06-22T05:52:08;8.30;;;3.85;;
20144;SDS011;10233;50.814;6.590;2023-06-22T05:53:09;6.72;;;3.30;;
20144;SDS011;10233;50.814;6.590;2023-06-22T05:54:09;5.27;;;3.40;;
20144;SDS011;10233;50.814;6.590;2023-06-22T05:55:10;10.27;;;3.47;;
20144;SDS011;10233;50.814;6.590;2023-06-22T05:56:10;8.02;;;3.50;;
20144;SDS011;10233;50.814;6.590;2023-06-22T05:57:11;8.50;;;4.17;;
20144;SDS011;10233;50.814;6.590;2023-06-22T05:58:11;8.17;;;3.67;;
20144;SDS011;10233;50.814;6.590;2023-06-22T05:59:13;7.57;;;3.70;;
20144;SDS011;10233;50.814;6.590;2023-06-22T06:00:14;7.23;;;3.10;;
20144;SDS011;10233;50.814;6.590;2023-06-22T06:01:15;6.18;;;3.72;;
20144;SDS011;10233;50.814;6.590;2023-06-22T06:02:15;5.63;;;3.60;;
20144;SDS011;10233;50.814;6.590;2023-06-22T06:03:16;7.80;;;3.40;;
20144;SDS011;10233;50.814;6.590;2023-06-22T06:04:17;7.80;;;3.70;;
20144;SDS011;10233;50.814;6.590;2023-06-22T06:05:18;5.53;;;3.22;;
20144;SDS011;10233;50.814;6.590;2023-06-22T06:06:19;5.97;;;3.73;;
20144;SDS011;10233;50.814;6.590;2023-06-22T06:07:28;5.67;;;3.33;;
20144;SDS011;10233;50.814;6.590;2023-06-22T06:08:29;5.60;;;3.40;;
20144;SDS011;10233;50.814;6.590;2023-06-22T06:09:30;7.75;;;3.55;;
20144;SDS011;10233;50.814;6.590;2023-06-22T06:10:31;5.93;;;3.63;;
20144;SDS011;10233;50.814;6.590;2023-06-22T06:11:32;6.45;;;3.78;;
20144;SDS011;10233;50.814;6.590;2023-06-22T06:12:32;7.40;;;3.50;;
20144;SDS011;10233;50.814;6.590;2023-06-22T06:13:33;8.38;;;3.63;;
20144;SDS011;10233;50.814;6.590;2023-06-22T06:14:34;7.50;;;3.63;;
20144;SDS011;10233;50.814;6.590;2023-06-22T06:15:34;5.78;;;3.20;;
20144;SDS011;10233;50.814;6.590;2023-06-22T06:16:35;6.10;;;3.70;;
20144;SDS011;10233;50.814;6.590;2023-06-22T06:17:35;5.13;;;3.43;;
20144;SDS011;10233;50.814;6.590;2023-06-22T06:18:44;4.47;;;3.25;;
20144;SDS011;10233;50.814;6.590;2023-06-22T06:19:45;5.70;;;3.37;;
20144;SDS011;10233;50.814;6.590;2023-06-22T06:20:45;4.47;;;3.30;;
20144;SDS011;10233;50.814;6.590;2023-06-22T06:21:46;7.70;;;3.60;;